sensor_id;sensor_type;location;lat;lon;timestamp;temperature;humidity
71436;SHT31;59251;51.326;12.370;2023-07-29T00:01:25;19.40;92.05
71436;SHT31;59251;51.326;12.370;2023-07-29T00:03:52;19.40;92.12
71436;SHT31;59251;51.326;12.370;2023-07-29T00:06:20;19.43;92.01
71436;SHT31;59251;51.326;12.370;2023-07-29T00:08:47;19.47;92.05
71436;SHT31;59251;51.326;12.370;2023-07-29T00:11:14;19.45;92.38
71436;SHT31;59251;51.326;12.370;2023-07-29T00:13:40;19.43;92.56
71436;SHT31;59251;51.326;12.370;2023-07-29T00:16:07;19.43;92.73
71436;SHT31;59251;51.326;12.370;2023-07-29T00:18:34;19.42;92.80
71436;SHT31;59251;51.326;12.370;2023-07-29T00:21:00;19.36;92.82
71436;SHT31;59251;51.326;12.370;2023-07-29T00:23:28;19.36;92.81
71436;SHT31;59251;51.326;12.370;2023-07-29T00:25:55;19.37;92.79
71436;SHT31;59251;51.326;12.370;2023-07-29T00:28:22;19.36;92.73
71436;SHT31;59251;51.326;12.370;2023-07-29T00:30:48;19.34;92.74
71436;SHT31;59251;51.326;12.370;2023-07-29T00:33:15;19.34;92.64
71436;SHT31;59251;51.326;12.370;2023-07-29T00:35:42;19.39;92.41
71436;SHT31;59251;51.326;12.370;2023-07-29T00:38:09;19.36;92.26
71436;SHT31;59251;51.326;12.370;2023-07-29T00:40:37;19.34;92.20
71436;SHT31;59251;51.326;12.370;2023-07-29T00:43:04;19.42;92.01
71436;SHT31;59251;51.326;12.370;2023-07-29T00:45:32;19.45;91.78
71436;SHT31;59251;51.326;12.370;2023-07-29T00:47:59;19.45;91.70
71436;SHT31;59251;51.326;12.370;2023-07-29T00:50:27;19.42;91.66
71436;SHT31;59251;51.326;12.370;2023-07-29T00:52:54;19.42;91.73
71436;SHT31;59251;51.326;12.370;2023-07-29T00:55:22;19.45;91.67
71436;SHT31;59251;51.326;12.370;2023-07-29T00:57:51;19.40;91.83
71436;SHT31;59251;51.326;12.370;2023-07-29T01:00:20;19.37;91.97
71436;SHT31;59251;51.326;12.370;2023-07-29T01:02:47;19.36;91.97
71436;SHT31;59251;51.326;12.370;2023-07-29T01:05:16;19.39;92.04
71436;SHT31;59251;51.326;12.370;2023-07-29T01:07:47;19.36;92.21
71436;SHT31;59251;51.326;12.370;2023-07-29T01:10:21;19.27;92.44
71436;SHT31;59251;51.326;12.370;2023-07-29T01:12:56;19.29;92.47
71436;SHT31;59251;51.326;12.370;2023-07-29T01:15:31;19.27;92.56
71436;SHT31;59251;51.326;12.370;2023-07-29T01:18:05;19.24;92.88
71436;SHT31;59251;51.326;12.370;2023-07-29T01:20:33;19.12;93.39
71436;SHT31;59251;51.326;12.370;2023-07-29T01:23:00;19.05;93.73
71436;SHT31;59251;51.326;12.370;2023-07-29T01:25:28;19.01;93.88
71436;SHT31;59251;51.326;12.370;2023-07-29T01:27:55;19.03;94.03
71436;SHT31;59251;51.326;12.370;2023-07-29T01:30:28;19.03;94.02
71436;SHT31;59251;51.326;12.370;2023-07-29T01:33:02;18.96;94.39
71436;SHT31;59251;51.326;12.370;2023-07-29T01:35:33;19.03;94.30
71436;SHT31;59251;51.326;12.370;2023-07-29T01:38:05;19.12;94.10
71436;SHT31;59251;51.326;12.370;2023-07-29T01:40:35;19.15;94.05
71436;SHT31;59251;51.326;12.370;2023-07-29T01:43:02;19.18;93.95
71436;SHT31;59251;51.326;12.370;2023-07-29T01:45:29;19.19;93.92
71436;SHT31;59251;51.326;12.370;2023-07-29T01:47:57;19.22;93.75
71436;SHT31;59251;51.326;12.370;2023-07-29T01:50:23;19.24;93.65
71436;SHT31;59251;51.326;12.370;2023-07-29T01:52:50;19.32;93.27
71436;SHT31;59251;51.326;12.370;2023-07-29T01:55:17;19.29;93.38
71436;SHT31;59251;51.326;12.370;2023-07-29T01:57:45;19.29;93.46
71436;SHT31;59251;51.326;12.370;2023-07-29T02:00:13;19.32;93.41
71436;SHT31;59251;51.326;12.370;2023-07-29T02:02:43;19.29;93.44
71436;SHT31;59251;51.326;12.370;2023-07-29T02:05:10;19.32;93.32
71436;SHT31;59251;51.326;12.370;2023-07-29T02:07:37;19.32;93.40
71436;SHT31;59251;51.326;12.370;2023-07-29T02:10:04;19.34;93.18
71436;SHT31;59251;51.326;12.370;2023-07-29T02:12:31;19.33;93.14
71436;SHT31;59251;51.326;12.370;2023-07-29T02:14:59;19.30;93.31
71436;SHT31;59251;51.326;12.370;2023-07-29T02:17:26;19.30;93.35
71436;SHT31;59251;51.326;12.370;2023-07-29T02:19:52;19.27;93.45
71436;SHT31;59251;51.326;12.370;2023-07-29T02:22:19;19.29;93.43
71436;SHT31;59251;51.326;12.370;2023-07-29T02:24:46;19.26;93.57
71436;SHT31;59251;51.326;12.370;2023-07-29T02:27:13;19.26;93.50
71436;SHT31;59251;51.326;12.370;2023-07-29T02:29:39;19.23;93.65
71436;SHT31;59251;51.326;12.370;2023-07-29T02:32:07;19.16;93.76
71436;SHT31;59251;51.326;12.370;2023-07-29T02:34:34;19.15;93.92
71436;SHT31;59251;51.326;12.370;2023-07-29T02:37:01;19.08;94.21
71436;SHT31;59251;51.326;12.370;2023-07-29T02:39:28;19.06;94.22
71436;SHT31;59251;51.326;12.370;2023-07-29T02:41:54;19.01;94.47
71436;SHT31;59251;51.326;12.370;2023-07-29T02:44:24;18.98;94.49
71436;SHT31;59251;51.326;12.370;2023-07-29T02:46:50;18.94;94.69
71436;SHT31;59251;51.326;12.370;2023-07-29T02:49:21;18.88;94.94
71436;SHT31;59251;51.326;12.370;2023-07-29T02:51:48;18.79;95.24
71436;SHT31;59251;51.326;12.370;2023-07-29T02:54:15;18.75;95.46
71436;SHT31;59251;51.326;12.370;2023-07-29T02:56:42;18.75;95.47
71436;SHT31;59251;51.326;12.370;2023-07-29T02:59:08;18.72;95.61
71436;SHT31;59251;51.326;12.370;2023-07-29T03:01:35;18.67;95.77
71436;SHT31;59251;51.326;12.370;2023-07-29T03:04:02;18.67;95.93
71436;SHT31;59251;51.326;12.370;2023-07-29T03:06:30;18.58;96.04
71436;SHT31;59251;51.326;12.370;2023-07-29T03:08:57;18.51;96.40
71436;SHT31;59251;51.326;12.370;2023-07-29T03:11:24;18.46;96.50
71436;SHT31;59251;51.326;12.370;2023-07-29T03:13:50;18.46;96.51
71436;SHT31;59251;51.326;12.370;2023-07-29T03:16:17;18.43;96.59
71436;SHT31;59251;51.326;12.370;2023-07-29T03:18:50;18.34;96.70
71436;SHT31;59251;51.326;12.370;2023-07-29T03:21:17;18.30;97.07
71436;SHT31;59251;51.326;12.370;2023-07-29T03:23:45;18.36;96.95
71436;SHT31;59251;51.326;12.370;2023-07-29T03:26:12;18.32;96.97
71436;SHT31;59251;51.326;12.370;2023-07-29T03:28:40;18.29;97.14
71436;SHT31;59251;51.326;12.370;2023-07-29T03:31:07;18.26;97.26
71436;SHT31;59251;51.326;12.370;2023-07-29T03:33:34;18.20;97.22
71436;SHT31;59251;51.326;12.370;2023-07-29T03:36:01;18.26;97.27
71436;SHT31;59251;51.326;12.370;2023-07-29T03:38:28;18.29;97.16
71436;SHT31;59251;51.326;12.370;2023-07-29T03:40:56;18.26;97.14
71436;SHT31;59251;51.326;12.370;2023-07-29T03:43:23;18.25;96.96
71436;SHT31;59251;51.326;12.370;2023-07-29T03:45:54;18.22;97.32
71436;SHT31;59251;51.326;12.370;2023-07-29T03:48:21;18.23;97.30
71436;SHT31;59251;51.326;12.370;2023-07-29T03:50:48;18.27;97.02
71436;SHT31;59251;51.326;12.370;2023-07-29T03:53:14;18.26;97.12
71436;SHT31;59251;51.326;12.370;2023-07-29T03:55:42;18.32;96.91
71436;SHT31;59251;51.326;12.370;2023-07-29T03:58:10;18.30;96.85
71436;SHT31;59251;51.326;12.370;2023-07-29T04:00:37;18.27;96.99
71436;SHT31;59251;51.326;12.370;2023-07-29T04:03:04;18.27;97.08
71436;SHT31;59251;51.326;12.370;2023-07-29T04:05:32;18.23;97.39
71436;SHT31;59251;51.326;12.370;2023-07-29T04:07:59;18.23;97.61
71436;SHT31;59251;51.326;12.370;2023-07-29T04:10:25;18.30;97.54
71436;SHT31;59251;51.326;12.370;2023-07-29T04:12:52;18.32;97.44
71436;SHT31;59251;51.326;12.370;2023-07-29T04:15:20;18.32;97.64
71436;SHT31;59251;51.326;12.370;2023-07-29T04:17:47;18.33;97.67
71436;SHT31;59251;51.326;12.370;2023-07-29T04:20:14;18.40;97.46
71436;SHT31;59251;51.326;12.370;2023-07-29T04:22:40;18.46;97.28
71436;SHT31;59251;51.326;12.370;2023-07-29T04:25:07;18.56;96.98
71436;SHT31;59251;51.326;12.370;2023-07-29T04:27:34;18.65;96.57
71436;SHT31;59251;51.326;12.370;2023-07-29T04:30:01;18.67;96.44
71436;SHT31;59251;51.326;12.370;2023-07-29T04:32:29;18.71;96.17
71436;SHT31;59251;51.326;12.370;2023-07-29T04:34:55;18.76;96.02
71436;SHT31;59251;51.326;12.370;2023-07-29T04:37:22;18.76;96.09
71436;SHT31;59251;51.326;12.370;2023-07-29T04:39:49;18.83;95.86
71436;SHT31;59251;51.326;12.370;2023-07-29T04:42:16;18.87;95.41
71436;SHT31;59251;51.326;12.370;2023-07-29T04:44:42;19.01;95.02
71436;SHT31;59251;51.326;12.370;2023-07-29T04:47:09;19.11;94.66
71436;SHT31;59251;51.326;12.370;2023-07-29T04:49:37;19.26;94.15
71436;SHT31;59251;51.326;12.370;2023-07-29T04:52:05;19.54;93.08
71436;SHT31;59251;51.326;12.370;2023-07-29T04:54:32;19.66;92.70
71436;SHT31;59251;51.326;12.370;2023-07-29T04:56:58;19.69;92.48
71436;SHT31;59251;51.326;12.370;2023-07-29T04:59:26;19.77;92.19
71436;SHT31;59251;51.326;12.370;2023-07-29T05:01:53;19.71;92.07
71436;SHT31;59251;51.326;12.370;2023-07-29T05:04:20;19.78;91.79
71436;SHT31;59251;51.326;12.370;2023-07-29T05:06:48;19.92;91.52
71436;SHT31;59251;51.326;12.370;2023-07-29T05:09:17;19.95;91.33
71436;SHT31;59251;51.326;12.370;2023-07-29T05:11:45;20.04;91.20
71436;SHT31;59251;51.326;12.370;2023-07-29T05:14:13;20.17;90.80
71436;SHT31;59251;51.326;12.370;2023-07-29T05:16:41;20.24;90.22
71436;SHT31;59251;51.326;12.370;2023-07-29T05:19:08;20.36;89.90
71436;SHT31;59251;51.326;12.370;2023-07-29T05:21:35;20.46;89.57
71436;SHT31;59251;51.326;12.370;2023-07-29T05:24:03;20.60;89.07
71436;SHT31;59251;51.326;12.370;2023-07-29T05:26:30;20.86;88.20
71436;SHT31;59251;51.326;12.370;2023-07-29T05:28:57;21.30;86.81
71436;SHT31;59251;51.326;12.370;2023-07-29T05:31:24;21.55;86.10
71436;SHT31;59251;51.326;12.370;2023-07-29T05:33:50;21.72;85.38
71436;SHT31;59251;51.326;12.370;2023-07-29T05:36:17;21.96;84.47
71436;SHT31;59251;51.326;12.370;2023-07-29T05:38:44;22.09;84.38
71436;SHT31;59251;51.326;12.370;2023-07-29T05:41:12;21.97;84.42
71436;SHT31;59251;51.326;12.370;2023-07-29T05:43:39;22.11;83.74
71436;SHT31;59251;51.326;12.370;2023-07-29T05:46:08;22.37;83.23
71436;SHT31;59251;51.326;12.370;2023-07-29T05:48:35;23.30;80.18
71436;SHT31;59251;51.326;12.370;2023-07-29T05:51:02;23.79;78.53
71436;SHT31;59251;51.326;12.370;2023-07-29T05:53:30;23.26;79.72
71436;SHT31;59251;51.326;12.370;2023-07-29T05:55:57;23.02;80.73
71436;SHT31;59251;51.326;12.370;2023-07-29T05:58:25;22.68;81.66
71436;SHT31;59251;51.326;12.370;2023-07-29T06:00:52;22.57;81.94
71436;SHT31;59251;51.326;12.370;2023-07-29T06:03:19;22.51;81.75
71436;SHT31;59251;51.326;12.370;2023-07-29T06:05:46;22.38;82.21
71436;SHT31;59251;51.326;12.370;2023-07-29T06:08:13;22.44;82.57
71436;SHT31;59251;51.326;12.370;2023-07-29T06:10:40;22.40;82.76
71436;SHT31;59251;51.326;12.370;2023-07-29T06:13:06;22.30;82.49
71436;SHT31;59251;51.326;12.370;2023-07-29T06:15:34;22.40;82.68
71436;SHT31;59251;51.326;12.370;2023-07-29T06:18:01;22.37;82.78
71436;SHT31;59251;51.326;12.370;2023-07-29T06:20:28;22.51;82.18
71436;SHT31;59251;51.326;12.370;2023-07-29T06:22:55;22.48;82.15
71436;SHT31;59251;51.326;12.370;2023-07-29T06:25:22;22.34;82.77
71436;SHT31;59251;51.326;12.370;2023-07-29T06:27:48;22.72;81.41
71436;SHT31;59251;51.326;12.370;2023-07-29T06:30:15;22.78;81.20
71436;SHT31;59251;51.326;12.370;2023-07-29T06:32:43;23.00;80.78
71436;SHT31;59251;51.326;12.370;2023-07-29T06:35:10;23.06;80.47
71436;SHT31;59251;51.326;12.370;2023-07-29T06:37:37;22.86;80.83
71436;SHT31;59251;51.326;12.370;2023-07-29T06:40:04;22.55;81.52
71436;SHT31;59251;51.326;12.370;2023-07-29T06:42:31;22.59;81.10
71436;SHT31;59251;51.326;12.370;2023-07-29T06:44:58;22.61;81.15
71436;SHT31;59251;51.326;12.370;2023-07-29T06:47:24;22.68;81.22
71436;SHT31;59251;51.326;12.370;2023-07-29T06:49:53;22.55;80.70
71436;SHT31;59251;51.326;12.370;2023-07-29T06:52:20;22.59;80.31
71436;SHT31;59251;51.326;12.370;2023-07-29T06:54:47;22.58;80.41
71436;SHT31;59251;51.326;12.370;2023-07-29T06:57:13;22.64;80.49
71436;SHT31;59251;51.326;12.370;2023-07-29T06:59:40;22.81;79.94
71436;SHT31;59251;51.326;12.370;2023-07-29T07:02:07;23.09;79.20
71436;SHT31;59251;51.326;12.370;2023-07-29T07:04:33;23.22;78.88
71436;SHT31;59251;51.326;12.370;2023-07-29T07:07:02;23.49;78.19
71436;SHT31;59251;51.326;12.370;2023-07-29T07:09:28;23.78;77.76
71436;SHT31;59251;51.326;12.370;2023-07-29T07:11:55;23.81;76.93
71436;SHT31;59251;51.326;12.370;2023-07-29T07:14:22;24.09;76.23
71436;SHT31;59251;51.326;12.370;2023-07-29T07:16:48;24.22;75.82
71436;SHT31;59251;51.326;12.370;2023-07-29T07:19:15;24.39;75.35
71436;SHT31;59251;51.326;12.370;2023-07-29T07:21:42;24.23;75.63
71436;SHT31;59251;51.326;12.370;2023-07-29T07:24:10;24.19;75.36
71436;SHT31;59251;51.326;12.370;2023-07-29T07:26:36;23.99;76.72
71436;SHT31;59251;51.326;12.370;2023-07-29T07:29:03;24.08;75.68
71436;SHT31;59251;51.326;12.370;2023-07-29T07:31:33;23.68;76.14
71436;SHT31;59251;51.326;12.370;2023-07-29T07:34:00;24.04;75.65
71436;SHT31;59251;51.326;12.370;2023-07-29T07:36:27;23.99;75.87
71436;SHT31;59251;51.326;12.370;2023-07-29T07:38:54;23.82;75.66
71436;SHT31;59251;51.326;12.370;2023-07-29T07:41:22;24.13;74.87
71436;SHT31;59251;51.326;12.370;2023-07-29T07:43:49;23.98;75.17
71436;SHT31;59251;51.326;12.370;2023-07-29T07:46:16;24.22;74.42
71436;SHT31;59251;51.326;12.370;2023-07-29T07:48:42;23.98;75.23
71436;SHT31;59251;51.326;12.370;2023-07-29T07:51:10;24.05;74.88
71436;SHT31;59251;51.326;12.370;2023-07-29T07:53:37;23.85;75.41
71436;SHT31;59251;51.326;12.370;2023-07-29T07:56:04;23.89;75.43
71436;SHT31;59251;51.326;12.370;2023-07-29T07:58:32;23.99;75.16
71436;SHT31;59251;51.326;12.370;2023-07-29T08:01:01;24.16;74.89
71436;SHT31;59251;51.326;12.370;2023-07-29T08:03:28;24.05;75.37
71436;SHT31;59251;51.326;12.370;2023-07-29T08:05:54;24.10;74.92
71436;SHT31;59251;51.326;12.370;2023-07-29T08:08:21;23.94;75.46
71436;SHT31;59251;51.326;12.370;2023-07-29T08:10:48;24.04;75.34
71436;SHT31;59251;51.326;12.370;2023-07-29T08:13:14;24.01;75.89
71436;SHT31;59251;51.326;12.370;2023-07-29T08:15:45;23.82;75.89
71436;SHT31;59251;51.326;12.370;2023-07-29T08:18:12;24.09;75.23
71436;SHT31;59251;51.326;12.370;2023-07-29T08:20:39;24.02;75.19
71436;SHT31;59251;51.326;12.370;2023-07-29T08:23:06;24.15;74.92
71436;SHT31;59251;51.326;12.370;2023-07-29T08:25:32;24.05;75.17
71436;SHT31;59251;51.326;12.370;2023-07-29T08:27:59;24.02;74.81
71436;SHT31;59251;51.326;12.370;2023-07-29T08:30:26;24.09;74.95
71436;SHT31;59251;51.326;12.370;2023-07-29T08:32:54;24.23;74.39
71436;SHT31;59251;51.326;12.370;2023-07-29T08:35:21;24.20;74.71
71436;SHT31;59251;51.326;12.370;2023-07-29T08:37:47;24.20;75.26
71436;SHT31;59251;51.326;12.370;2023-07-29T08:40:14;24.41;74.29
71436;SHT31;59251;51.326;12.370;2023-07-29T08:42:41;24.88;73.52
71436;SHT31;59251;51.326;12.370;2023-07-29T08:45:10;24.77;73.52
71436;SHT31;59251;51.326;12.370;2023-07-29T08:47:37;24.84;73.23
71436;SHT31;59251;51.326;12.370;2023-07-29T08:50:07;24.47;74.15
71436;SHT31;59251;51.326;12.370;2023-07-29T08:52:34;24.70;73.77
71436;SHT31;59251;51.326;12.370;2023-07-29T08:55:01;24.61;73.96
71436;SHT31;59251;51.326;12.370;2023-07-29T08:57:28;24.66;73.97
71436;SHT31;59251;51.326;12.370;2023-07-29T08:59:56;24.92;73.19
71436;SHT31;59251;51.326;12.370;2023-07-29T09:02:24;25.18;72.84
71436;SHT31;59251;51.326;12.370;2023-07-29T09:04:51;25.03;73.10
71436;SHT31;59251;51.326;12.370;2023-07-29T09:07:19;25.59;71.51
71436;SHT31;59251;51.326;12.370;2023-07-29T09:09:46;25.50;71.50
71436;SHT31;59251;51.326;12.370;2023-07-29T09:12:13;25.41;72.41
71436;SHT31;59251;51.326;12.370;2023-07-29T09:14:39;25.50;71.43
71436;SHT31;59251;51.326;12.370;2023-07-29T09:17:07;25.46;71.44
71436;SHT31;59251;51.326;12.370;2023-07-29T09:19:35;25.35;71.86
71436;SHT31;59251;51.326;12.370;2023-07-29T09:22:01;25.46;71.70
71436;SHT31;59251;51.326;12.370;2023-07-29T09:24:30;25.08;72.74
71436;SHT31;59251;51.326;12.370;2023-07-29T09:26:57;25.24;72.07
71436;SHT31;59251;51.326;12.370;2023-07-29T09:29:28;25.39;71.60
71436;SHT31;59251;51.326;12.370;2023-07-29T09:32:17;25.41;71.22
71436;SHT31;59251;51.326;12.370;2023-07-29T09:34:45;25.54;71.19
71436;SHT31;59251;51.326;12.370;2023-07-29T09:37:15;25.58;71.43
71436;SHT31;59251;51.326;12.370;2023-07-29T09:39:45;25.05;73.52
71436;SHT31;59251;51.326;12.370;2023-07-29T09:42:17;24.95;73.79
71436;SHT31;59251;51.326;12.370;2023-07-29T09:44:44;25.01;73.98
71436;SHT31;59251;51.326;12.370;2023-07-29T09:47:19;24.81;74.43
71436;SHT31;59251;51.326;12.370;2023-07-29T09:49:46;24.66;74.93
71436;SHT31;59251;51.326;12.370;2023-07-29T09:52:15;24.39;75.76
71436;SHT31;59251;51.326;12.370;2023-07-29T09:54:42;24.70;75.18
71436;SHT31;59251;51.326;12.370;2023-07-29T09:57:12;24.56;75.78
71436;SHT31;59251;51.326;12.370;2023-07-29T09:59:40;24.73;75.48
71436;SHT31;59251;51.326;12.370;2023-07-29T10:02:10;24.76;75.32
71436;SHT31;59251;51.326;12.370;2023-07-29T10:04:40;24.99;74.78
71436;SHT31;59251;51.326;12.370;2023-07-29T10:07:08;24.84;75.01
71436;SHT31;59251;51.326;12.370;2023-07-29T10:09:36;24.92;74.63
71436;SHT31;59251;51.326;12.370;2023-07-29T10:12:06;25.24;73.35
71436;SHT31;59251;51.326;12.370;2023-07-29T10:14:34;25.35;73.17
71436;SHT31;59251;51.326;12.370;2023-07-29T10:17:02;25.56;72.11
71436;SHT31;59251;51.326;12.370;2023-07-29T10:19:30;25.49;72.80
71436;SHT31;59251;51.326;12.370;2023-07-29T10:21:59;25.36;73.47
71436;SHT31;59251;51.326;12.370;2023-07-29T10:24:30;25.29;73.48
71436;SHT31;59251;51.326;12.370;2023-07-29T10:26:58;25.14;74.08
71436;SHT31;59251;51.326;12.370;2023-07-29T10:29:29;24.92;74.72
71436;SHT31;59251;51.326;12.370;2023-07-29T10:32:01;24.92;74.84
71436;SHT31;59251;51.326;12.370;2023-07-29T10:34:29;24.83;75.46
71436;SHT31;59251;51.326;12.370;2023-07-29T10:36:56;24.90;75.30
71436;SHT31;59251;51.326;12.370;2023-07-29T10:39:24;24.64;76.34
71436;SHT31;59251;51.326;12.370;2023-07-29T10:41:55;24.70;76.47
71436;SHT31;59251;51.326;12.370;2023-07-29T10:44:47;24.91;76.51
71436;SHT31;59251;51.326;12.370;2023-07-29T10:47:19;24.92;76.00
71436;SHT31;59251;51.326;12.370;2023-07-29T10:49:48;24.97;76.43
71436;SHT31;59251;51.326;12.370;2023-07-29T10:52:16;25.19;75.91
71436;SHT31;59251;51.326;12.370;2023-07-29T10:54:43;25.47;74.78
71436;SHT31;59251;51.326;12.370;2023-07-29T10:57:13;25.43;74.16
71436;SHT31;59251;51.326;12.370;2023-07-29T10:59:41;25.42;73.87
71436;SHT31;59251;51.326;12.370;2023-07-29T11:02:18;25.49;72.48
71436;SHT31;59251;51.326;12.370;2023-07-29T11:04:50;25.58;71.43
71436;SHT31;59251;51.326;12.370;2023-07-29T11:07:24;25.70;71.44
71436;SHT31;59251;51.326;12.370;2023-07-29T11:09:59;25.97;70.61
71436;SHT31;59251;51.326;12.370;2023-07-29T11:12:42;25.73;70.19
71436;SHT31;59251;51.326;12.370;2023-07-29T11:15:16;25.63;70.24
71436;SHT31;59251;51.326;12.370;2023-07-29T11:17:46;25.76;69.83
71436;SHT31;59251;51.326;12.370;2023-07-29T11:20:14;25.90;69.65
71436;SHT31;59251;51.326;12.370;2023-07-29T11:22:41;25.84;69.86
71436;SHT31;59251;51.326;12.370;2023-07-29T11:25:10;25.97;69.77
71436;SHT31;59251;51.326;12.370;2023-07-29T11:27:37;25.87;68.78
71436;SHT31;59251;51.326;12.370;2023-07-29T11:30:06;25.86;68.73
71436;SHT31;59251;51.326;12.370;2023-07-29T11:32:34;25.84;68.46
71436;SHT31;59251;51.326;12.370;2023-07-29T11:35:04;26.05;67.95
71436;SHT31;59251;51.326;12.370;2023-07-29T11:37:32;26.28;67.23
71436;SHT31;59251;51.326;12.370;2023-07-29T11:39:59;26.07;66.99
71436;SHT31;59251;51.326;12.370;2023-07-29T11:42:27;26.14;67.43
71436;SHT31;59251;51.326;12.370;2023-07-29T11:44:56;26.17;67.07
71436;SHT31;59251;51.326;12.370;2023-07-29T11:47:23;26.04;67.26
71436;SHT31;59251;51.326;12.370;2023-07-29T11:49:49;25.81;67.45
71436;SHT31;59251;51.326;12.370;2023-07-29T11:52:18;25.80;67.83
71436;SHT31;59251;51.326;12.370;2023-07-29T11:54:46;26.14;67.36
71436;SHT31;59251;51.326;12.370;2023-07-29T11:57:13;26.60;66.90
71436;SHT31;59251;51.326;12.370;2023-07-29T11:59:41;26.53;66.78
71436;SHT31;59251;51.326;12.370;2023-07-29T12:02:13;26.44;66.89
71436;SHT31;59251;51.326;12.370;2023-07-29T12:04:40;26.13;67.73
71436;SHT31;59251;51.326;12.370;2023-07-29T12:07:08;26.08;67.75
71436;SHT31;59251;51.326;12.370;2023-07-29T12:09:37;26.20;67.05
71436;SHT31;59251;51.326;12.370;2023-07-29T12:12:06;26.16;66.90
71436;SHT31;59251;51.326;12.370;2023-07-29T12:14:33;25.98;67.50
71436;SHT31;59251;51.326;12.370;2023-07-29T12:17:00;26.01;68.07
71436;SHT31;59251;51.326;12.370;2023-07-29T12:19:31;25.42;69.40
71436;SHT31;59251;51.326;12.370;2023-07-29T12:21:59;25.45;69.60
71436;SHT31;59251;51.326;12.370;2023-07-29T12:24:26;25.43;69.94
71436;SHT31;59251;51.326;12.370;2023-07-29T12:26:54;25.86;69.27
71436;SHT31;59251;51.326;12.370;2023-07-29T12:29:21;25.91;69.10
71436;SHT31;59251;51.326;12.370;2023-07-29T12:31:48;26.02;67.57
71436;SHT31;59251;51.326;12.370;2023-07-29T12:34:18;26.14;67.54
71436;SHT31;59251;51.326;12.370;2023-07-29T12:36:47;26.38;66.76
71436;SHT31;59251;51.326;12.370;2023-07-29T12:39:17;26.29;67.80
71436;SHT31;59251;51.326;12.370;2023-07-29T12:41:44;26.17;68.45
71436;SHT31;59251;51.326;12.370;2023-07-29T12:44:12;26.27;69.05
71436;SHT31;59251;51.326;12.370;2023-07-29T12:46:39;26.34;68.23
71436;SHT31;59251;51.326;12.370;2023-07-29T12:49:06;26.16;68.80
71436;SHT31;59251;51.326;12.370;2023-07-29T12:51:33;26.60;67.70
71436;SHT31;59251;51.326;12.370;2023-07-29T12:54:00;26.51;68.29
71436;SHT31;59251;51.326;12.370;2023-07-29T12:56:27;27.11;66.77
71436;SHT31;59251;51.326;12.370;2023-07-29T12:58:54;28.12;64.07
71436;SHT31;59251;51.326;12.370;2023-07-29T13:01:22;28.43;62.44
71436;SHT31;59251;51.326;12.370;2023-07-29T13:03:48;27.04;63.17
71436;SHT31;59251;51.326;12.370;2023-07-29T13:06:15;26.78;63.26
71436;SHT31;59251;51.326;12.370;2023-07-29T13:08:42;26.63;64.24
71436;SHT31;59251;51.326;12.370;2023-07-29T13:11:09;27.61;62.54
71436;SHT31;59251;51.326;12.370;2023-07-29T13:13:36;29.14;59.38
71436;SHT31;59251;51.326;12.370;2023-07-29T13:16:04;29.67;58.40
71436;SHT31;59251;51.326;12.370;2023-07-29T13:18:32;30.28;56.78
71436;SHT31;59251;51.326;12.370;2023-07-29T13:20:59;30.31;56.03
71436;SHT31;59251;51.326;12.370;2023-07-29T13:23:26;29.43;56.71
71436;SHT31;59251;51.326;12.370;2023-07-29T13:25:55;28.06;59.64
71436;SHT31;59251;51.326;12.370;2023-07-29T13:28:21;27.59;60.78
71436;SHT31;59251;51.326;12.370;2023-07-29T13:30:48;28.79;58.77
71436;SHT31;59251;51.326;12.370;2023-07-29T13:33:15;29.45;57.02
71436;SHT31;59251;51.326;12.370;2023-07-29T13:35:43;30.21;55.40
71436;SHT31;59251;51.326;12.370;2023-07-29T13:38:10;28.79;58.10
71436;SHT31;59251;51.326;12.370;2023-07-29T13:40:37;30.04;57.02
71436;SHT31;59251;51.326;12.370;2023-07-29T13:43:04;30.05;55.99
71436;SHT31;59251;51.326;12.370;2023-07-29T13:45:31;30.22;56.24
71436;SHT31;59251;51.326;12.370;2023-07-29T13:47:57;31.45;54.47
71436;SHT31;59251;51.326;12.370;2023-07-29T13:50:24;31.42;53.97
71436;SHT31;59251;51.326;12.370;2023-07-29T13:52:52;30.87;54.85
71436;SHT31;59251;51.326;12.370;2023-07-29T13:55:19;30.87;54.26
71436;SHT31;59251;51.326;12.370;2023-07-29T13:57:46;32.09;52.38
71436;SHT31;59251;51.326;12.370;2023-07-29T14:00:13;32.82;50.35
71436;SHT31;59251;51.326;12.370;2023-07-29T14:02:41;31.38;52.76
71436;SHT31;59251;51.326;12.370;2023-07-29T14:05:08;29.56;55.41
71436;SHT31;59251;51.326;12.370;2023-07-29T14:07:34;30.19;53.86
71436;SHT31;59251;51.326;12.370;2023-07-29T14:10:03;30.63;53.22
71436;SHT31;59251;51.326;12.370;2023-07-29T14:12:30;30.42;53.54
71436;SHT31;59251;51.326;12.370;2023-07-29T14:14:56;30.67;52.94
71436;SHT31;59251;51.326;12.370;2023-07-29T14:17:23;30.77;52.69
71436;SHT31;59251;51.326;12.370;2023-07-29T14:19:50;30.00;54.87
71436;SHT31;59251;51.326;12.370;2023-07-29T14:22:16;29.71;55.88
71436;SHT31;59251;51.326;12.370;2023-07-29T14:24:43;28.46;58.28
71436;SHT31;59251;51.326;12.370;2023-07-29T14:27:11;28.24;58.37
71436;SHT31;59251;51.326;12.370;2023-07-29T14:29:38;27.78;59.72
71436;SHT31;59251;51.326;12.370;2023-07-29T14:32:05;27.24;61.52
71436;SHT31;59251;51.326;12.370;2023-07-29T14:34:32;26.95;62.72
71436;SHT31;59251;51.326;12.370;2023-07-29T14:36:58;26.78;61.61
71436;SHT31;59251;51.326;12.370;2023-07-29T14:39:25;26.80;61.86
71436;SHT31;59251;51.326;12.370;2023-07-29T14:41:52;26.55;62.50
71436;SHT31;59251;51.326;12.370;2023-07-29T14:44:20;25.98;66.42
71436;SHT31;59251;51.326;12.370;2023-07-29T14:46:46;25.32;70.09
71436;SHT31;59251;51.326;12.370;2023-07-29T14:49:13;24.71;70.72
71436;SHT31;59251;51.326;12.370;2023-07-29T14:51:40;24.56;70.71
71436;SHT31;59251;51.326;12.370;2023-07-29T14:54:06;24.44;70.68
71436;SHT31;59251;51.326;12.370;2023-07-29T14:56:33;24.18;70.98
71436;SHT31;59251;51.326;12.370;2023-07-29T14:59:00;23.71;71.75
71436;SHT31;59251;51.326;12.370;2023-07-29T15:01:28;23.51;72.85
71436;SHT31;59251;51.326;12.370;2023-07-29T15:03:54;23.02;77.39
71436;SHT31;59251;51.326;12.370;2023-07-29T15:06:21;22.37;79.84
71436;SHT31;59251;51.326;12.370;2023-07-29T15:08:48;21.93;82.37
71436;SHT31;59251;51.326;12.370;2023-07-29T15:11:14;21.67;82.21
71436;SHT31;59251;51.326;12.370;2023-07-29T15:13:41;21.35;84.30
71436;SHT31;59251;51.326;12.370;2023-07-29T15:16:08;20.93;85.63
71436;SHT31;59251;51.326;12.370;2023-07-29T15:18:36;20.63;85.31